sensor_id;sensor_type;location;lat;lon;timestamp;P1;durP1;ratioP1;P2;durP2;ratioP2
67274;SDS011;55463;52.324;5.122;2023-02-12T00:01:38;34.05;;;15.85;;
67274;SDS011;55463;52.324;5.122;2023-02-12T00:04:07;30.77;;;15.95;;
67274;SDS011;55463;52.324;5.122;2023-02-12T00:06:32;29.33;;;15.80;;
67274;SDS011;55463;52.324;5.122;2023-02-12T00:08:58;31.83;;;15.38;;
67274;SDS011;55463;52.324;5.122;2023-02-12T00:11:26;34.15;;;18.02;;
67274;SDS011;55463;52.324;5.122;2023-02-12T00:13:53;34.40;;;15.68;;
67274;SDS011;55463;52.324;5.122;2023-02-12T00:16:20;34.53;;;17.40;;
67274;SDS011;55463;52.324;5.122;2023-02-12T00:18:49;33.40;;;16.33;;
67274;SDS011;55463;52.324;5.122;2023-02-12T00:21:16;37.05;;;16.10;;
67274;SDS011;55463;52.324;5.122;2023-02-12T00:23:41;34.78;;;17.02;;
67274;SDS011;55463;52.324;5.122;2023-02-12T00:26:08;34.33;;;17.00;;
67274;SDS011;55463;52.324;5.122;2023-02-12T00:28:35;37.78;;;16.80;;
67274;SDS011;55463;52.324;5.122;2023-02-12T00:31:05;36.08;;;18.17;;
67274;SDS011;55463;52.324;5.122;2023-02-12T00:33:31;34.75;;;17.52;;
67274;SDS011;55463;52.324;5.122;2023-02-12T00:35:56;44.53;;;18.67;;
67274;SDS011;55463;52.324;5.122;2023-02-12T00:38:22;34.95;;;18.73;;
67274;SDS011;55463;52.324;5.122;2023-02-12T00:40:47;39.55;;;19.73;;
67274;SDS011;55463;52.324;5.122;2023-02-12T00:43:15;51.47;;;21.15;;
67274;SDS011;55463;52.324;5.122;2023-02-12T00:45:41;45.15;;;20.15;;
67274;SDS011;55463;52.324;5.122;2023-02-12T00:48:08;45.58;;;21.38;;
67274;SDS011;55463;52.324;5.122;2023-02-12T00:50:33;47.38;;;20.15;;
67274;SDS011;55463;52.324;5.122;2023-02-12T00:52:59;47.08;;;20.75;;
67274;SDS011;55463;52.324;5.122;2023-02-12T00:55:24;53.33;;;20.15;;
67274;SDS011;55463;52.324;5.122;2023-02-12T00:57:50;48.22;;;21.30;;
67274;SDS011;55463;52.324;5.122;2023-02-12T01:00:15;48.13;;;20.85;;
67274;SDS011;55463;52.324;5.122;2023-02-12T01:02:41;47.92;;;21.65;;
67274;SDS011;55463;52.324;5.122;2023-02-12T01:05:07;45.92;;;19.08;;
67274;SDS011;55463;52.324;5.122;2023-02-12T01:07:33;60.72;;;22.52;;
67274;SDS011;55463;52.324;5.122;2023-02-12T01:09:58;56.42;;;20.70;;
67274;SDS011;55463;52.324;5.122;2023-02-12T01:12:24;59.13;;;20.63;;
67274;SDS011;55463;52.324;5.122;2023-02-12T01:14:49;55.88;;;21.38;;
67274;SDS011;55463;52.324;5.122;2023-02-12T01:17:15;55.45;;;22.73;;
67274;SDS011;55463;52.324;5.122;2023-02-12T01:19:40;61.55;;;22.80;;
67274;SDS011;55463;52.324;5.122;2023-02-12T01:22:06;53.60;;;23.92;;
67274;SDS011;55463;52.324;5.122;2023-02-12T01:24:31;51.50;;;22.20;;
67274;SDS011;55463;52.324;5.122;2023-02-12T01:26:57;62.75;;;24.80;;
67274;SDS011;55463;52.324;5.122;2023-02-12T01:29:22;58.22;;;22.98;;
67274;SDS011;55463;52.324;5.122;2023-02-12T01:31:47;57.95;;;23.35;;
67274;SDS011;55463;52.324;5.122;2023-02-12T01:34:13;71.10;;;24.48;;
67274;SDS011;55463;52.324;5.122;2023-02-12T01:36:38;67.72;;;25.15;;
67274;SDS011;55463;52.324;5.122;2023-02-12T01:39:04;67.88;;;24.67;;
67274;SDS011;55463;52.324;5.122;2023-02-12T01:41:31;66.43;;;23.92;;
67274;SDS011;55463;52.324;5.122;2023-02-12T01:46:30;55.15;;;24.20;;
67274;SDS011;55463;52.324;5.122;2023-02-12T01:48:56;60.28;;;23.67;;
67274;SDS011;55463;52.324;5.122;2023-02-12T01:51:21;75.30;;;25.27;;
67274;SDS011;55463;52.324;5.122;2023-02-12T01:53:50;69.82;;;24.08;;
67274;SDS011;55463;52.324;5.122;2023-02-12T01:56:19;71.83;;;23.93;;
67274;SDS011;55463;52.324;5.122;2023-02-12T01:58:47;69.13;;;24.75;;
67274;SDS011;55463;52.324;5.122;2023-02-12T02:01:18;70.47;;;24.42;;
67274;SDS011;55463;52.324;5.122;2023-02-12T02:03:46;66.28;;;25.27;;
67274;SDS011;55463;52.324;5.122;2023-02-12T02:06:22;65.10;;;23.85;;
67274;SDS011;55463;52.324;5.122;2023-02-12T02:08:51;62.20;;;24.27;;
67274;SDS011;55463;52.324;5.122;2023-02-12T02:11:18;59.95;;;23.08;;
67274;SDS011;55463;52.324;5.122;2023-02-12T02:14:02;67.63;;;23.23;;
67274;SDS011;55463;52.324;5.122;2023-02-12T02:16:47;66.25;;;23.73;;
67274;SDS011;55463;52.324;5.122;2023-02-12T02:19:30;65.57;;;24.75;;
67274;SDS011;55463;52.324;5.122;2023-02-12T02:27:37;56.95;;;22.70;;
67274;SDS011;55463;52.324;5.122;2023-02-12T02:30:22;69.45;;;25.33;;
67274;SDS011;55463;52.324;5.122;2023-02-12T02:33:21;60.55;;;21.88;;
67274;SDS011;55463;52.324;5.122;2023-02-12T02:38:21;70.07;;;25.73;;
67274;SDS011;55463;52.324;5.122;2023-02-12T02:40:53;68.75;;;24.08;;
67274;SDS011;55463;52.324;5.122;2023-02-12T02:43:27;70.80;;;24.40;;
67274;SDS011;55463;52.324;5.122;2023-02-12T02:46:02;68.45;;;24.92;;
67274;SDS011;55463;52.324;5.122;2023-02-12T02:48:37;73.00;;;25.52;;
67274;SDS011;55463;52.324;5.122;2023-02-12T02:51:18;73.85;;;25.90;;
67274;SDS011;55463;52.324;5.122;2023-02-12T02:53:48;84.35;;;26.80;;
67274;SDS011;55463;52.324;5.122;2023-02-12T02:56:19;69.38;;;25.73;;
67274;SDS011;55463;52.324;5.122;2023-02-12T02:58:57;68.63;;;24.65;;
67274;SDS011;55463;52.324;5.122;2023-02-12T03:01:33;85.57;;;26.75;;
67274;SDS011;55463;52.324;5.122;2023-02-12T03:04:05;95.68;;;27.38;;
67274;SDS011;55463;52.324;5.122;2023-02-12T03:06:43;88.50;;;26.85;;
67274;SDS011;55463;52.324;5.122;2023-02-12T03:09:16;81.63;;;24.77;;
67274;SDS011;55463;52.324;5.122;2023-02-12T03:11:51;77.07;;;26.25;;
67274;SDS011;55463;52.324;5.122;2023-02-12T03:14:28;82.88;;;26.85;;
67274;SDS011;55463;52.324;5.122;2023-02-12T03:16:59;95.45;;;27.50;;
67274;SDS011;55463;52.324;5.122;2023-02-12T03:19:29;85.45;;;28.23;;
67274;SDS011;55463;52.324;5.122;2023-02-12T03:22:10;81.40;;;27.27;;
67274;SDS011;55463;52.324;5.122;2023-02-12T03:24:40;93.28;;;28.40;;
67274;SDS011;55463;52.324;5.122;2023-02-12T03:27:14;84.78;;;28.08;;
67274;SDS011;55463;52.324;5.122;2023-02-12T03:29:44;84.47;;;28.10;;
67274;SDS011;55463;52.324;5.122;2023-02-12T03:39:59;77.20;;;28.40;;
67274;SDS011;55463;52.324;5.122;2023-02-12T03:42:47;84.00;;;25.83;;
67274;SDS011;55463;52.324;5.122;2023-02-12T03:50:34;94.78;;;27.52;;
67274;SDS011;55463;52.324;5.122;2023-02-12T03:53:05;82.45;;;26.80;;
67274;SDS011;55463;52.324;5.122;2023-02-12T03:55:31;76.88;;;26.48;;
67274;SDS011;55463;52.324;5.122;2023-02-12T03:58:00;76.45;;;26.35;;
67274;SDS011;55463;52.324;5.122;2023-02-12T04:00:28;69.45;;;25.92;;
67274;SDS011;55463;52.324;5.122;2023-02-12T04:02:54;71.68;;;25.23;;
67274;SDS011;55463;52.324;5.122;2023-02-12T04:05:22;81.40;;;25.38;;
67274;SDS011;55463;52.324;5.122;2023-02-12T04:07:49;77.65;;;25.88;;
67274;SDS011;55463;52.324;5.122;2023-02-12T04:10:16;71.57;;;25.92;;
67274;SDS011;55463;52.324;5.122;2023-02-12T04:12:53;63.05;;;24.58;;
67274;SDS011;55463;52.324;5.122;2023-02-12T04:15:32;68.55;;;25.92;;
67274;SDS011;55463;52.324;5.122;2023-02-12T04:18:24;60.53;;;23.38;;
67274;SDS011;55463;52.324;5.122;2023-02-12T04:27:18;62.30;;;23.90;;
67274;SDS011;55463;52.324;5.122;2023-02-12T04:29:50;55.55;;;22.83;;
67274;SDS011;55463;52.324;5.122;2023-02-12T04:32:40;55.15;;;23.27;;
67274;SDS011;55463;52.324;5.122;2023-02-12T04:35:10;62.80;;;24.30;;
67274;SDS011;55463;52.324;5.122;2023-02-12T04:40:27;54.75;;;24.20;;
67274;SDS011;55463;52.324;5.122;2023-02-12T04:42:53;59.03;;;23.92;;
67274;SDS011;55463;52.324;5.122;2023-02-12T04:45:26;57.38;;;21.90;;
67274;SDS011;55463;52.324;5.122;2023-02-12T04:47:53;53.70;;;23.23;;
67274;SDS011;55463;52.324;5.122;2023-02-12T04:50:19;57.30;;;22.58;;
67274;SDS011;55463;52.324;5.122;2023-02-12T04:52:45;52.58;;;22.65;;
67274;SDS011;55463;52.324;5.122;2023-02-12T04:55:11;48.95;;;21.92;;
67274;SDS011;55463;52.324;5.122;2023-02-12T04:57:36;51.85;;;22.02;;
67274;SDS011;55463;52.324;5.122;2023-02-12T05:00:05;50.17;;;22.13;;
67274;SDS011;55463;52.324;5.122;2023-02-12T05:02:32;53.17;;;22.10;;
67274;SDS011;55463;52.324;5.122;2023-02-12T05:05:00;47.65;;;21.08;;
67274;SDS011;55463;52.324;5.122;2023-02-12T05:07:25;43.95;;;20.10;;
67274;SDS011;55463;52.324;5.122;2023-02-12T05:09:51;43.88;;;20.02;;
67274;SDS011;55463;52.324;5.122;2023-02-12T05:12:17;43.28;;;21.45;;
67274;SDS011;55463;52.324;5.122;2023-02-12T05:14:42;46.75;;;20.73;;
67274;SDS011;55463;52.324;5.122;2023-02-12T05:17:10;44.75;;;19.95;;
67274;SDS011;55463;52.324;5.122;2023-02-12T05:19:36;38.30;;;20.20;;
67274;SDS011;55463;52.324;5.122;2023-02-12T05:22:01;42.33;;;21.38;;
67274;SDS011;55463;52.324;5.122;2023-02-12T05:24:27;39.75;;;20.55;;
67274;SDS011;55463;52.324;5.122;2023-02-12T05:26:52;42.00;;;20.23;;
67274;SDS011;55463;52.324;5.122;2023-02-12T05:29:18;42.33;;;20.42;;
67274;SDS011;55463;52.324;5.122;2023-02-12T05:31:44;37.92;;;18.80;;
67274;SDS011;55463;52.324;5.122;2023-02-12T05:34:10;39.15;;;20.52;;
67274;SDS011;55463;52.324;5.122;2023-02-12T05:36:36;41.08;;;19.15;;
67274;SDS011;55463;52.324;5.122;2023-02-12T05:39:02;37.20;;;19.17;;
67274;SDS011;55463;52.324;5.122;2023-02-12T05:41:29;39.90;;;19.85;;
67274;SDS011;55463;52.324;5.122;2023-02-12T05:43:59;40.05;;;20.50;;
67274;SDS011;55463;52.324;5.122;2023-02-12T05:46:28;38.45;;;19.83;;
67274;SDS011;55463;52.324;5.122;2023-02-12T05:48:54;38.67;;;19.92;;
67274;SDS011;55463;52.324;5.122;2023-02-12T05:51:20;38.92;;;19.80;;
67274;SDS011;55463;52.324;5.122;2023-02-12T05:53:48;34.63;;;19.48;;
67274;SDS011;55463;52.324;5.122;2023-02-12T05:56:19;34.90;;;18.92;;
67274;SDS011;55463;52.324;5.122;2023-02-12T05:58:50;34.92;;;18.75;;
67274;SDS011;55463;52.324;5.122;2023-02-12T06:01:19;41.17;;;19.02;;
67274;SDS011;55463;52.324;5.122;2023-02-12T06:03:46;41.50;;;19.67;;
67274;SDS011;55463;52.324;5.122;2023-02-12T06:06:12;37.00;;;20.05;;
67274;SDS011;55463;52.324;5.122;2023-02-12T06:08:38;36.40;;;19.10;;
67274;SDS011;55463;52.324;5.122;2023-02-12T06:11:05;35.33;;;19.77;;
67274;SDS011;55463;52.324;5.122;2023-02-12T06:13:32;35.03;;;20.08;;
67274;SDS011;55463;52.324;5.122;2023-02-12T06:15:58;32.53;;;18.63;;
67274;SDS011;55463;52.324;5.122;2023-02-12T06:18:24;38.92;;;19.90;;
67274;SDS011;55463;52.324;5.122;2023-02-12T06:20:49;39.72;;;20.20;;
67274;SDS011;55463;52.324;5.122;2023-02-12T06:23:18;41.72;;;19.73;;
67274;SDS011;55463;52.324;5.122;2023-02-12T06:25:45;37.72;;;18.73;;
67274;SDS011;55463;52.324;5.122;2023-02-12T06:28:11;45.50;;;21.80;;
67274;SDS011;55463;52.324;5.122;2023-02-12T06:30:36;41.17;;;20.98;;
67274;SDS011;55463;52.324;5.122;2023-02-12T06:33:04;40.28;;;19.95;;
67274;SDS011;55463;52.324;5.122;2023-02-12T06:35:30;33.83;;;19.15;;
67274;SDS011;55463;52.324;5.122;2023-02-12T06:37:55;38.45;;;20.30;;
67274;SDS011;55463;52.324;5.122;2023-02-12T06:40:21;32.50;;;19.73;;
67274;SDS011;55463;52.324;5.122;2023-02-12T06:42:47;37.28;;;20.35;;
67274;SDS011;55463;52.324;5.122;2023-02-12T06:45:12;32.15;;;18.30;;
67274;SDS011;55463;52.324;5.122;2023-02-12T06:47:38;31.13;;;17.90;;
67274;SDS011;55463;52.324;5.122;2023-02-12T06:50:03;33.42;;;18.48;;
67274;SDS011;55463;52.324;5.122;2023-02-12T06:52:29;30.58;;;18.13;;
67274;SDS011;55463;52.324;5.122;2023-02-12T06:54:55;28.52;;;16.13;;
67274;SDS011;55463;52.324;5.122;2023-02-12T06:57:22;30.17;;;17.58;;
67274;SDS011;55463;52.324;5.122;2023-02-12T06:59:48;35.97;;;18.08;;
67274;SDS011;55463;52.324;5.122;2023-02-12T07:02:14;30.88;;;17.27;;
67274;SDS011;55463;52.324;5.122;2023-02-12T07:04:39;32.45;;;17.98;;
67274;SDS011;55463;52.324;5.122;2023-02-12T07:07:05;32.30;;;18.85;;
67274;SDS011;55463;52.324;5.122;2023-02-12T07:09:30;31.58;;;17.58;;
67274;SDS011;55463;52.324;5.122;2023-02-12T07:11:59;34.88;;;19.38;;
67274;SDS011;55463;52.324;5.122;2023-02-12T07:14:25;28.55;;;16.70;;
67274;SDS011;55463;52.324;5.122;2023-02-12T07:16:52;33.63;;;19.65;;
67274;SDS011;55463;52.324;5.122;2023-02-12T07:19:19;31.67;;;18.60;;
67274;SDS011;55463;52.324;5.122;2023-02-12T07:21:44;34.47;;;19.63;;
67274;SDS011;55463;52.324;5.122;2023-02-12T07:24:11;35.63;;;19.25;;
67274;SDS011;55463;52.324;5.122;2023-02-12T07:26:38;30.52;;;17.55;;
67274;SDS011;55463;52.324;5.122;2023-02-12T07:29:04;33.45;;;18.70;;
67274;SDS011;55463;52.324;5.122;2023-02-12T07:31:29;35.88;;;19.23;;
67274;SDS011;55463;52.324;5.122;2023-02-12T07:33:56;31.25;;;18.63;;
67274;SDS011;55463;52.324;5.122;2023-02-12T07:36:22;35.40;;;19.52;;
67274;SDS011;55463;52.324;5.122;2023-02-12T07:38:49;32.53;;;19.13;;
67274;SDS011;55463;52.324;5.122;2023-02-12T07:41:19;37.70;;;21.38;;
67274;SDS011;55463;52.324;5.122;2023-02-12T07:43:57;31.75;;;20.00;;
67274;SDS011;55463;52.324;5.122;2023-02-12T07:46:40;33.58;;;19.85;;
67274;SDS011;55463;52.324;5.122;2023-02-12T07:49:14;32.60;;;19.42;;
67274;SDS011;55463;52.324;5.122;2023-02-12T07:51:44;33.85;;;19.77;;
67274;SDS011;55463;52.324;5.122;2023-02-12T07:54:10;31.02;;;18.33;;
67274;SDS011;55463;52.324;5.122;2023-02-12T07:56:37;32.08;;;18.25;;
67274;SDS011;55463;52.324;5.122;2023-02-12T07:59:09;32.03;;;17.23;;
67274;SDS011;55463;52.324;5.122;2023-02-12T08:01:39;30.85;;;16.77;;
67274;SDS011;55463;52.324;5.122;2023-02-12T08:04:10;26.58;;;14.77;;
67274;SDS011;55463;52.324;5.122;2023-02-12T08:06:38;26.42;;;15.43;;
67274;SDS011;55463;52.324;5.122;2023-02-12T08:09:06;24.73;;;15.80;;
67274;SDS011;55463;52.324;5.122;2023-02-12T08:11:34;27.35;;;16.30;;
67274;SDS011;55463;52.324;5.122;2023-02-12T08:14:00;30.83;;;15.52;;
67274;SDS011;55463;52.324;5.122;2023-02-12T08:16:27;26.70;;;15.20;;
67274;SDS011;55463;52.324;5.122;2023-02-12T08:18:53;22.98;;;14.68;;
67274;SDS011;55463;52.324;5.122;2023-02-12T08:21:22;26.67;;;15.27;;
67274;SDS011;55463;52.324;5.122;2023-02-12T08:23:49;28.65;;;15.30;;
67274;SDS011;55463;52.324;5.122;2023-02-12T08:28:45;25.73;;;15.32;;
67274;SDS011;55463;52.324;5.122;2023-02-12T08:31:13;20.60;;;14.07;;
67274;SDS011;55463;52.324;5.122;2023-02-12T08:33:44;26.63;;;15.52;;
67274;SDS011;55463;52.324;5.122;2023-02-12T08:36:11;28.90;;;16.13;;
67274;SDS011;55463;52.324;5.122;2023-02-12T08:38:39;26.75;;;14.55;;
67274;SDS011;55463;52.324;5.122;2023-02-12T08:41:09;28.60;;;15.13;;
67274;SDS011;55463;52.324;5.122;2023-02-12T08:43:39;24.98;;;14.68;;
67274;SDS011;55463;52.324;5.122;2023-02-12T08:46:07;25.30;;;16.10;;
67274;SDS011;55463;52.324;5.122;2023-02-12T08:48:37;27.88;;;16.65;;
67274;SDS011;55463;52.324;5.122;2023-02-12T08:51:08;29.60;;;14.88;;
67274;SDS011;55463;52.324;5.122;2023-02-12T08:53:34;26.27;;;14.18;;
67274;SDS011;55463;52.324;5.122;2023-02-12T08:56:00;27.73;;;15.15;;
67274;SDS011;55463;52.324;5.122;2023-02-12T08:58:26;22.90;;;14.35;;
67274;SDS011;55463;52.324;5.122;2023-02-12T09:00:51;22.23;;;14.25;;
67274;SDS011;55463;52.324;5.122;2023-02-12T09:03:17;19.77;;;13.07;;
67274;SDS011;55463;52.324;5.122;2023-02-12T09:05:42;23.70;;;14.77;;
67274;SDS011;55463;52.324;5.122;2023-02-12T09:08:08;21.80;;;13.70;;
67274;SDS011;55463;52.324;5.122;2023-02-12T09:10:37;23.10;;;13.98;;
67274;SDS011;55463;52.324;5.122;2023-02-12T09:13:04;24.00;;;14.00;;
67274;SDS011;55463;52.324;5.122;2023-02-12T09:15:30;21.40;;;14.10;;
67274;SDS011;55463;52.324;5.122;2023-02-12T09:17:56;20.95;;;13.10;;
67274;SDS011;55463;52.324;5.122;2023-02-12T09:20:21;20.73;;;13.23;;
67274;SDS011;55463;52.324;5.122;2023-02-12T09:22:47;21.63;;;13.98;;
67274;SDS011;55463;52.324;5.122;2023-02-12T09:25:12;21.25;;;14.00;;
67274;SDS011;55463;52.324;5.122;2023-02-12T09:27:38;23.33;;;14.73;;
67274;SDS011;55463;52.324;5.122;2023-02-12T09:30:03;23.08;;;14.38;;
67274;SDS011;55463;52.324;5.122;2023-02-12T09:32:29;18.17;;;13.55;;
67274;SDS011;55463;52.324;5.122;2023-02-12T09:34:55;22.75;;;14.95;;
67274;SDS011;55463;52.324;5.122;2023-02-12T09:37:22;24.00;;;14.45;;
67274;SDS011;55463;52.324;5.122;2023-02-12T09:39:48;22.70;;;14.05;;
67274;SDS011;55463;52.324;5.122;2023-02-12T09:42:29;24.23;;;13.65;;
67274;SDS011;55463;52.324;5.122;2023-02-12T09:47:58;22.13;;;13.63;;
67274;SDS011;55463;52.324;5.122;2023-02-12T09:53:20;21.05;;;12.50;;
67274;SDS011;55463;52.324;5.122;2023-02-12T09:55:48;22.30;;;12.43;;
67274;SDS011;55463;52.324;5.122;2023-02-12T09:58:23;16.80;;;12.10;;
67274;SDS011;55463;52.324;5.122;2023-02-12T10:01:02;19.05;;;12.68;;
67274;SDS011;55463;52.324;5.122;2023-02-12T10:03:35;19.50;;;12.50;;
67274;SDS011;55463;52.324;5.122;2023-02-12T10:06:04;15.90;;;11.32;;
67274;SDS011;55463;52.324;5.122;2023-02-12T10:11:50;18.27;;;11.75;;
67274;SDS011;55463;52.324;5.122;2023-02-12T10:20:26;16.00;;;10.85;;
67274;SDS011;55463;52.324;5.122;2023-02-12T10:23:10;15.80;;;10.85;;
67274;SDS011;55463;52.324;5.122;2023-02-12T10:28:37;17.58;;;11.63;;
67274;SDS011;55463;52.324;5.122;2023-02-12T10:31:05;17.83;;;10.35;;
67274;SDS011;55463;52.324;5.122;2023-02-12T10:33:38;16.73;;;11.23;;
67274;SDS011;55463;52.324;5.122;2023-02-12T10:36:17;15.82;;;11.13;;
67274;SDS011;55463;52.324;5.122;2023-02-12T10:38:54;19.63;;;11.50;;
67274;SDS011;55463;52.324;5.122;2023-02-12T10:41:27;18.00;;;11.52;;
67274;SDS011;55463;52.324;5.122;2023-02-12T10:43:56;25.10;;;11.30;;
67274;SDS011;55463;52.324;5.122;2023-02-12T10:46:22;16.52;;;11.25;;
67274;SDS011;55463;52.324;5.122;2023-02-12T10:48:48;15.98;;;11.20;;
67274;SDS011;55463;52.324;5.122;2023-02-12T10:51:39;14.88;;;10.77;;
67274;SDS011;55463;52.324;5.122;2023-02-12T10:54:30;16.25;;;11.30;;
67274;SDS011;55463;52.324;5.122;2023-02-12T10:56:56;13.43;;;10.48;;
67274;SDS011;55463;52.324;5.122;2023-02-12T10:59:22;16.35;;;11.07;;
67274;SDS011;55463;52.324;5.122;2023-02-12T11:01:48;18.02;;;11.15;;
67274;SDS011;55463;52.324;5.122;2023-02-12T11:07:04;18.88;;;12.15;;
67274;SDS011;55463;52.324;5.122;2023-02-12T11:09:35;16.65;;;12.05;;
67274;SDS011;55463;52.324;5.122;2023-02-12T11:12:29;19.33;;;12.43;;
67274;SDS011;55463;52.324;5.122;2023-02-12T11:15:13;16.48;;;12.68;;
67274;SDS011;55463;52.324;5.122;2023-02-12T11:17:42;16.73;;;12.25;;
67274;SDS011;55463;52.324;5.122;2023-02-12T11:22:57;18.73;;;12.73;;
67274;SDS011;55463;52.324;5.122;2023-02-12T11:25:26;16.83;;;12.40;;
67274;SDS011;55463;52.324;5.122;2023-02-12T11:28:00;17.20;;;12.57;;
67274;SDS011;55463;52.324;5.122;2023-02-12T11:30:29;18.52;;;12.93;;
67274;SDS011;55463;52.324;5.122;2023-02-12T11:33:08;17.10;;;12.45;;
67274;SDS011;55463;52.324;5.122;2023-02-12T11:35:47;21.20;;;13.25;;
67274;SDS011;55463;52.324;5.122;2023-02-12T11:38:22;18.85;;;13.15;;
67274;SDS011;55463;52.324;5.122;2023-02-12T11:40:52;17.05;;;12.15;;
67274;SDS011;55463;52.324;5.122;2023-02-12T11:43:20;17.17;;;12.23;;
67274;SDS011;55463;52.324;5.122;2023-02-12T11:45:48;16.08;;;12.20;;
67274;SDS011;55463;52.324;5.122;2023-02-12T11:53:32;17.58;;;11.73;;
67274;SDS011;55463;52.324;5.122;2023-02-12T11:56:04;12.68;;;9.88;;
67274;SDS011;55463;52.324;5.122;2023-02-12T11:58:35;16.42;;;12.38;;
67274;SDS011;55463;52.324;5.122;2023-02-12T12:01:03;15.25;;;11.52;;
67274;SDS011;55463;52.324;5.122;2023-02-12T12:06:30;12.80;;;8.95;;
67274;SDS011;55463;52.324;5.122;2023-02-12T12:14:45;11.70;;;7.97;;
67274;SDS011;55463;52.324;5.122;2023-02-12T12:17:52;12.88;;;8.25;;
67274;SDS011;55463;52.324;5.122;2023-02-12T12:20:40;12.10;;;7.78;;
67274;SDS011;55463;52.324;5.122;2023-02-12T12:23:24;10.05;;;7.03;;
67274;SDS011;55463;52.324;5.122;2023-02-12T12:25:58;9.80;;;7.72;;
67274;SDS011;55463;52.324;5.122;2023-02-12T12:28:32;10.43;;;8.10;;
67274;SDS011;55463;52.324;5.122;2023-02-12T12:33:45;15.88;;;10.40;;
67274;SDS011;55463;52.324;5.122;2023-02-12T12:36:21;14.50;;;9.98;;
67274;SDS011;55463;52.324;5.122;2023-02-12T12:48:26;15.05;;;9.95;;
67274;SDS011;55463;52.324;5.122;2023-02-12T12:56:57;19.67;;;11.47;;
67274;SDS011;55463;52.324;5.122;2023-02-12T13:02:02;15.90;;;11.90;;
67274;SDS011;55463;52.324;5.122;2023-02-12T13:13:29;22.35;;;12.80;;
67274;SDS011;55463;52.324;5.122;2023-02-12T13:18:38;19.70;;;11.63;;
67274;SDS011;55463;52.324;5.122;2023-02-12T13:21:15;16.35;;;12.00;;
67274;SDS011;55463;52.324;5.122;2023-02-12T13:26:58;15.80;;;11.10;;
67274;SDS011;55463;52.324;5.122;2023-02-12T13:29:29;16.20;;;11.45;;
67274;SDS011;55463;52.324;5.122;2023-02-12T13:32:15;16.48;;;11.50;;
67274;SDS011;55463;52.324;5.122;2023-02-12T13:34:47;15.88;;;9.98;;
67274;SDS011;55463;52.324;5.122;2023-02-12T13:37:17;17.52;;;9.82;;
67274;SDS011;55463;52.324;5.122;2023-02-12T13:39:54;15.50;;;10.40;;
67274;SDS011;55463;52.324;5.122;2023-02-12T13:45:04;17.30;;;10.85;;
67274;SDS011;55463;52.324;5.122;2023-02-12T13:48:05;17.20;;;12.13;;
67274;SDS011;55463;52.324;5.122;2023-02-12T13:53:40;15.10;;;10.00;;
67274;SDS011;55463;52.324;5.122;2023-02-12T13:59:12;12.27;;;9.80;;
67274;SDS011;55463;52.324;5.122;2023-02-12T14:01:55;16.17;;;10.23;;
67274;SDS011;55463;52.324;5.122;2023-02-12T14:04:23;14.60;;;10.68;;
67274;SDS011;55463;52.324;5.122;2023-02-12T14:06:58;18.63;;;11.27;;
67274;SDS011;55463;52.324;5.122;2023-02-12T14:09:34;15.68;;;11.52;;
67274;SDS011;55463;52.324;5.122;2023-02-12T14:14:49;17.88;;;12.07;;
67274;SDS011;55463;52.324;5.122;2023-02-12T14:17:52;17.45;;;12.48;;
67274;SDS011;55463;52.324;5.122;2023-02-12T14:20:35;16.95;;;11.40;;
67274;SDS011;55463;52.324;5.122;2023-02-12T14:23:23;18.75;;;11.98;;
67274;SDS011;55463;52.324;5.122;2023-02-12T14:26:11;16.58;;;12.27;;
67274;SDS011;55463;52.324;5.122;2023-02-12T14:33:51;16.13;;;10.82;;
67274;SDS011;55463;52.324;5.122;2023-02-12T14:36:38;16.25;;;11.07;;
67274;SDS011;55463;52.324;5.122;2023-02-12T14:46:52;15.85;;;10.63;;
67274;SDS011;55463;52.324;5.122;2023-02-12T14:49:26;15.05;;;10.45;;
67274;SDS011;55463;52.324;5.122;2023-02-12T14:54:58;19.05;;;12.23;;
67274;SDS011;55463;52.324;5.122;2023-02-12T15:00:03;16.02;;;11.68;;
67274;SDS011;55463;52.324;5.122;2023-02-12T15:02:56;20.80;;;12.27;;
67274;SDS011;55463;52.324;5.122;2023-02-12T15:14:18;15.38;;;12.13;;
67274;SDS011;55463;52.324;5.122;2023-02-12T15:19:53;20.85;;;13.18;;
67274;SDS011;55463;52.324;5.122;2023-02-12T15:22:34;19.77;;;13.20;;
67274;SDS011;55463;52.324;5.122;2023-02-12T15:30:29;18.80;;;13.88;;
67274;SDS011;55463;52.324;5.122;2023-02-12T15:33:05;18.67;;;14.07;;
67274;SDS011;55463;52.324;5.122;2023-02-12T15:35:46;22.10;;;14.35;;
67274;SDS011;55463;52.324;5.122;2023-02-12T15:38:19;20.58;;;13.20;;
67274;SDS011;55463;52.324;5.122;2023-02-12T15:40:54;23.88;;;14.50;;
67274;SDS011;55463;52.324;5.122;2023-02-12T15:43:20;19.95;;;14.65;;
67274;SDS011;55463;52.324;5.122;2023-02-12T15:45:55;19.25;;;13.70;;
67274;SDS011;55463;52.324;5.122;2023-02-12T15:48:28;18.25;;;13.48;;
67274;SDS011;55463;52.324;5.122;2023-02-12T15:56:17;19.55;;;13.50;;
67274;SDS011;55463;52.324;5.122;2023-02-12T15:58:55;20.85;;;13.82;;
67274;SDS011;55463;52.324;5.122;2023-02-12T16:01:24;24.75;;;14.43;;
67274;SDS011;55463;52.324;5.122;2023-02-12T16:03:55;21.63;;;14.70;;
67274;SDS011;55463;52.324;5.122;2023-02-12T16:06:26;21.98;;;14.65;;
67274;SDS011;55463;52.324;5.122;2023-02-12T16:09:12;24.00;;;15.32;;
67274;SDS011;55463;52.324;5.122;2023-02-12T16:11:42;29.25;;;16.40;;
67274;SDS011;55463;52.324;5.122;2023-02-12T16:14:19;25.30;;;16.45;;
67274;SDS011;55463;52.324;5.122;2023-02-12T16:16:51;19.67;;;15.27;;
67274;SDS011;55463;52.324;5.122;2023-02-12T16:19:20;22.95;;;15.32;;
67274;SDS011;55463;52.324;5.122;2023-02-12T16:25:12;23.52;;;16.35;;
67274;SDS011;55463;52.324;5.122;2023-02-12T16:28:03;30.67;;;16.20;;
67274;SDS011;55463;52.324;5.122;2023-02-12T16:30:40;38.42;;;24.33;;
67274;SDS011;55463;52.324;5.122;2023-02-12T16:38:52;37.50;;;22.25;;
67274;SDS011;55463;52.324;5.122;2023-02-12T16:41:24;22.33;;;15.20;;
67274;SDS011;55463;52.324;5.122;2023-02-12T16:46:51;8.68;;;6.97;;
67274;SDS011;55463;52.324;5.122;2023-02-12T16:49:19;9.45;;;6.93;;
67274;SDS011;55463;52.324;5.122;2023-02-12T16:51:49;8.68;;;7.68;;
67274;SDS011;55463;52.324;5.122;2023-02-12T16:56:52;17.23;;;11.40;;
67274;SDS011;55463;52.324;5.122;2023-02-12T16:59:21;12.65;;;9.30;;
67274;SDS011;55463;52.324;5.122;2023-02-12T17:02:08;17.58;;;13.00;;
67274;SDS011;55463;52.324;5.122;2023-02-12T17:04:38;19.10;;;14.32;;
67274;SDS011;55463;52.324;5.122;2023-02-12T17:07:08;23.13;;;16.08;;
67274;SDS011;55463;52.324;5.122;2023-02-12T17:09:42;22.52;;;15.77;;
67274;SDS011;55463;52.324;5.122;2023-02-12T17:12:07;24.75;;;16.23;;
67274;SDS011;55463;52.324;5.122;2023-02-12T17:14:33;25.90;;;16.38;;
67274;SDS011;55463;52.324;5.122;2023-02-12T17:17:01;23.92;;;16.88;;
67274;SDS011;55463;52.324;5.122;2023-02-12T17:19:27;21.83;;;16.35;;
67274;SDS011;55463;52.324;5.122;2023-02-12T17:21:52;23.58;;;16.10;;
67274;SDS011;55463;52.324;5.122;2023-02-12T17:24:21;25.77;;;16.20;;
67274;SDS011;55463;52.324;5.122;2023-02-12T17:26:51;23.58;;;15.90;;
67274;SDS011;55463;52.324;5.122;2023-02-12T17:29:17;21.23;;;15.18;;
67274;SDS011;55463;52.324;5.122;2023-02-12T17:31:44;26.38;;;17.85;;
67274;SDS011;55463;52.324;5.122;2023-02-12T17:34:09;23.40;;;17.30;;
67274;SDS011;55463;52.324;5.122;2023-02-12T17:36:35;16.58;;;12.90;;
67274;SDS011;55463;52.324;5.122;2023-02-12T17:39:02;26.80;;;19.17;;